Time;durP1;ratioP1;P1;durP2;ratioP2;P2;SDS_P1;SDS_P2;PMS_P1;PMS_P2;Temp;Humidity;BMP_temperature;BMP_pressure;BME280_temperature;BME280_humidity;BME280_pressure;Samples;Min_cycle;Max_cycle;Signal;HPM_P1;HPM_P2
2022/09/30 00:04:23;;;;;;;23.08;16.48;;;19.80;94.20;;;;;;10134681;29;20288;-81
2022/09/30 00:09:26;;;;;;;23.17;17.27;;;19.80;94.20;;;;;;10134679;29;20272;-81
2022/09/30 00:14:28;;;;;;;21.73;16.33;;;19.80;94.10;;;;;;10115628;29;20248;-81
2022/09/30 00:19:31;;;;;;;24.23;17.08;;;19.80;94.10;;;;;;10117163;29;20264;-80
2022/09/30 00:24:33;;;;;;;22.60;16.30;;;19.80;94.00;;;;;;10136359;29;20204;-81
2022/09/30 00:29:36;;;;;;;19.13;14.75;;;19.80;94.00;;;;;;10117991;29;20570;-81
2022/09/30 00:34:38;;;;;;;19.45;15.35;;;19.80;93.90;;;;;;10132819;29;20236;-81
2022/09/30 00:39:41;;;;;;;19.92;15.15;;;19.80;93.90;;;;;;10123159;29;20255;-81
2022/09/30 00:45:04;;;;;;;19.77;14.55;;;19.80;93.90;;;;;;10133848;29;20260;-80
2022/09/30 00:50:15;;;;;;;19.48;15.13;;;19.80;93.80;;;;;;10133830;29;20243;-81
2022/09/30 00:55:56;;;;;;;21.85;15.70;;;19.80;93.90;;;;;;10130799;29;20296;-81
2022/09/30 01:01:01;;;;;;;20.33;15.38;;;19.80;93.80;;;;;;10131181;29;20263;-81
2022/09/30 01:06:04;;;;;;;20.88;14.23;;;19.80;93.90;;;;;;10132913;29;20762;-82
2022/09/30 01:11:07;;;;;;;20.10;14.95;;;19.80;93.90;;;;;;10131232;29;20272;-81
2022/09/30 01:16:28;;;;;;;21.58;15.45;;;19.80;93.90;;;;;;10131774;29;20692;-82
2022/09/30 01:21:39;;;;;;;19.48;14.77;;;19.80;93.90;;;;;;10131810;29;20272;-82
2022/09/30 01:27:02;;;;;;;17.02;13.40;;;19.80;93.80;;;;;;10114200;29;20236;-81
2022/09/30 01:32:10;;;;;;;19.08;14.70;;;19.80;93.90;;;;;;10128060;29;20220;-81
2022/09/30 01:37:32;;;;;;;20.55;14.43;;;19.80;93.90;;;;;;10096743;29;20295;-80
2022/09/30 01:42:40;;;;;;;22.17;14.85;;;19.80;93.90;;;;;;10111908;29;20232;-82
2022/09/30 01:47:53;;;;;;;18.73;14.20;;;19.80;93.90;;;;;;10075807;29;20261;-81
2022/09/30 01:53:12;;;;;;;18.60;13.80;;;19.80;93.90;;;;;;10075867;29;20260;-81
2022/09/30 01:58:29;;;;;;;19.27;13.50;;;19.80;93.90;;;;;;10091949;29;20260;-80
2022/09/30 02:03:38;;;;;;;19.85;13.60;;;19.80;94.00;;;;;;10075599;29;20256;-81
2022/09/30 02:08:56;;;;;;;19.52;13.82;;;19.80;94.00;;;;;;10092613;29;20243;-81
2022/09/30 02:14:18;;;;;;;17.25;14.13;;;19.80;94.00;;;;;;10094583;29;20212;-81
2022/09/30 02:19:23;;;;;;;18.55;13.90;;;19.80;94.10;;;;;;10077987;29;20254;-81
2022/09/30 02:24:30;;;;;;;17.08;13.43;;;19.80;94.10;;;;;;10077314;29;20208;-81
2022/09/30 02:29:41;;;;;;;17.33;13.88;;;19.80;94.00;;;;;;10093553;29;20213;-81
2022/09/30 02:34:52;;;;;;;19.23;14.27;;;19.80;94.30;;;;;;10094934;29;20289;-81
2022/09/30 02:40:20;;;;;;;19.05;14.00;;;19.80;94.20;;;;;;10100977;29;20592;-81
2022/09/30 02:45:23;;;;;;;16.75;13.80;;;19.80;94.20;;;;;;10140149;29;20395;-81
2022/09/30 02:50:43;;;;;;;19.60;13.98;;;19.80;94.20;;;;;;10124415;29;20204;-81
2022/09/30 02:55:52;;;;;;;17.98;12.98;;;19.70;94.20;;;;;;10122386;29;20208;-81
2022/09/30 03:00:56;;;;;;;14.57;12.93;;;19.70;94.40;;;;;;10122520;29;20228;-82
2022/09/30 03:05:59;;;;;;;17.00;14.00;;;19.70;94.50;;;;;;10140118;29;20208;-81
2022/09/30 03:11:02;;;;;;;17.67;14.13;;;19.70;94.40;;;;;;10124065;29;20280;-80
2022/09/30 03:16:16;;;;;;;21.38;14.05;;;19.70;94.40;;;;;;10141598;29;20233;-81
2022/09/30 03:21:33;;;;;;;14.02;12.60;;;19.70;94.40;;;;;;10124480;29;20578;-81
2022/09/30 03:27:14;;;;;;;15.35;12.52;;;19.70;94.50;;;;;;10107161;29;20272;-81
2022/09/30 03:32:25;;;;;;;16.38;12.77;;;19.70;94.50;;;;;;10119583;29;20208;-81
2022/09/30 03:37:52;;;;;;;16.67;12.60;;;19.70;94.50;;;;;;10140111;29;20216;-80
2022/09/30 03:43:31;;;;;;;17.85;12.63;;;19.70;94.50;;;;;;10107069;29;20228;-82
2022/09/30 03:48:36;;;;;;;13.65;11.38;;;19.70;94.80;;;;;;9985173;29;20242;-81
2022/09/30 03:53:40;;;;;;;14.20;12.70;;;19.70;94.60;;;;;;10004724;29;20214;-81
2022/09/30 03:58:43;;;;;;;15.57;12.88;;;19.70;94.60;;;;;;10029092;29;20303;-82
2022/09/30 04:03:47;;;;;;;15.00;12.63;;;19.70;94.60;;;;;;10001448;29;20298;-81
2022/09/30 04:08:50;;;;;;;17.70;13.32;;;19.70;94.70;;;;;;10022563;29;20246;-81
2022/09/30 04:13:52;;;;;;;14.27;11.77;;;19.70;94.70;;;;;;10021749;29;20642;-81
2022/09/30 04:18:55;;;;;;;18.38;13.23;;;19.70;94.70;;;;;;10012985;29;20716;-81
2022/09/30 04:23:58;;;;;;;14.55;12.70;;;19.70;94.70;;;;;;10084823;29;20295;-82
2022/09/30 04:29:00;;;;;;;13.65;11.70;;;19.70;94.70;;;;;;10133362;29;20208;-81
2022/09/30 04:34:03;;;;;;;17.02;12.65;;;19.70;94.70;;;;;;10133455;29;20287;-81
2022/09/30 04:39:06;;;;;;;13.63;12.20;;;19.70;94.60;;;;;;10114725;29;20315;-81
2022/09/30 04:44:08;;;;;;;14.15;12.32;;;19.70;94.70;;;;;;10127857;29;20263;-82
2022/09/30 04:49:11;;;;;;;14.40;12.45;;;19.60;94.90;;;;;;10171807;29;20236;-81
2022/09/30 04:54:15;;;;;;;14.25;12.20;;;19.60;94.90;;;;;;10155086;29;20247;-81
2022/09/30 04:59:17;;;;;;;15.65;12.43;;;19.50;95.10;;;;;;10114931;29;20296;-81
2022/09/30 05:04:20;;;;;;;15.50;12.32;;;19.60;95.10;;;;;;10114708;29;20636;-81
2022/09/30 05:09:23;;;;;;;13.50;12.10;;;19.60;95.10;;;;;;10115063;29;20236;-82
2022/09/30 05:14:25;;;;;;;14.48;11.57;;;19.60;95.00;;;;;;10113660;29;20766;-81
2022/09/30 05:19:28;;;;;;;18.90;12.57;;;19.60;95.00;;;;;;10133149;29;20256;-81
2022/09/30 05:24:31;;;;;;;15.43;12.18;;;19.60;95.00;;;;;;10131797;29;20264;-82
2022/09/30 05:29:34;;;;;;;28.30;24.48;;;19.60;95.00;;;;;;10130223;29;20244;-81
2022/09/30 05:34:37;;;;;;;23.43;16.67;;;18.30;89.30;;;;;;10131627;29;20232;-81
2022/09/30 05:39:41;;;;;;;25.83;16.90;;;18.30;91.00;;;;;;10130527;29;20255;-81
2022/09/30 05:44:44;;;;;;;21.30;15.00;;;18.80;89.10;;;;;;10130046;29;20275;-81
2022/09/30 05:49:46;;;;;;;20.00;13.80;;;19.00;87.20;;;;;;10129571;29;20280;-80
2022/09/30 05:54:49;;;;;;;18.05;13.75;;;19.20;86.40;;;;;;10108821;29;20236;-79
2022/09/30 05:59:51;;;;;;;24.43;18.73;;;19.20;86.30;;;;;;10096233;29;20264;-80
2022/09/30 06:04:54;;;;;;;20.27;16.20;;;18.60;89.30;;;;;;10089744;29;20265;-80
2022/09/30 06:09:56;;;;;;;20.65;13.88;;;18.70;90.20;;;;;;10089539;29;20205;-81
2022/09/30 06:14:59;;;;;;;21.83;15.23;;;18.90;88.60;;;;;;10094367;29;20277;-81
2022/09/30 06:20:04;;;;;;;24.63;17.23;;;18.80;88.80;;;;;;10134159;29;20255;-80
2022/09/30 06:25:06;;;;;;;23.00;16.63;;;18.30;93.10;;;;;;10131050;29;20236;-80
2022/09/30 06:30:09;;;;;;;19.93;15.00;;;18.50;94.00;;;;;;10112610;29;20303;-81
2022/09/30 06:35:11;;;;;;;24.97;14.10;;;18.80;93.80;;;;;;10101308;29;20716;-81
2022/09/30 06:40:14;;;;;;;19.50;14.85;;;19.20;93.00;;;;;;10073153;29;20732;-81
2022/09/30 06:45:17;;;;;;;22.67;14.55;;;19.50;92.50;;;;;;10097963;29;20285;-82
2022/09/30 06:50:34;;;;;;;16.33;13.43;;;19.70;92.00;;;;;;10109916;29;20243;-81
2022/09/30 06:55:37;;;;;;;22.40;14.52;;;19.90;91.60;;;;;;10091905;29;20239;-81
2022/09/30 07:00:40;;;;;;;19.15;14.10;;;20.10;91.50;;;;;;10107204;29;20682;-80
2022/09/30 07:06:03;;;;;;;21.65;16.17;;;20.20;91.50;;;;;;10117511;29;20240;-80
2022/09/30 07:11:13;;;;;;;17.88;15.65;;;20.20;91.40;;;;;;10109116;29;20700;-79
2022/09/30 07:16:18;;;;;;;20.85;15.95;;;20.30;91.10;;;;;;10108577;29;20232;-79
2022/09/30 07:21:20;;;;;;;21.77;17.20;;;20.40;91.00;;;;;;10106899;29;20382;-79
2022/09/30 07:26:23;;;;;;;21.90;18.15;;;20.50;90.90;;;;;;10098559;29;20229;-79
2022/09/30 07:31:26;;;;;;;20.38;17.25;;;20.50;90.90;;;;;;10116047;29;20652;-79
2022/09/30 07:36:37;;;;;;;21.88;18.48;;;20.60;90.90;;;;;;10130879;29;20284;-81
2022/09/30 07:41:40;;;;;;;21.80;18.83;;;20.60;90.90;;;;;;10133725;29;20279;-81
2022/09/30 07:46:43;;;;;;;25.08;19.20;;;20.70;90.80;;;;;;10116982;29;20239;-81
2022/09/30 07:51:45;;;;;;;24.80;20.08;;;20.80;90.80;;;;;;10133931;29;20236;-81
2022/09/30 07:56:49;;;;;;;24.23;19.33;;;20.80;90.70;;;;;;10116522;29;20273;-79
2022/09/30 08:02:17;;;;;;;23.35;18.95;;;20.80;90.80;;;;;;10086195;29;20260;-79
2022/09/30 08:07:19;;;;;;;28.95;22.08;;;20.90;90.70;;;;;;10103476;29;20244;-80
2022/09/30 08:12:22;;;;;;;30.80;22.60;;;20.40;92.30;;;;;;10133450;29;20268;-79
2022/09/30 08:17:24;;;;;;;27.13;20.02;;;20.30;92.30;;;;;;10115862;29;20692;-79
2022/09/30 08:22:27;;;;;;;27.65;19.25;;;20.50;91.90;;;;;;10121497;29;20252;-79
2022/09/30 08:27:29;;;;;;;25.67;18.67;;;20.70;91.30;;;;;;10131305;29;20243;-79
2022/09/30 08:32:31;;;;;;;22.23;18.27;;;20.90;91.00;;;;;;10139202;29;20240;-79
2022/09/30 08:37:34;;;;;;;27.15;18.40;;;20.90;90.90;;;;;;10152793;29;20235;-79
2022/09/30 08:42:36;;;;;;;21.60;17.38;;;21.00;90.70;;;;;;10145753;29;20323;-79
2022/09/30 08:47:58;;;;;;;24.52;18.52;;;21.00;90.70;;;;;;10155280;29;20235;-79
2022/09/30 08:53:07;;;;;;;22.65;16.70;;;21.00;90.70;;;;;;10131548;29;20232;-79
2022/09/30 08:58:35;;;;;;;22.65;17.83;;;20.80;91.20;;;;;;10140869;29;20291;-79
2022/09/30 09:03:39;;;;;;;24.17;18.00;;;20.90;91.30;;;;;;10140519;29;20631;-79
2022/09/30 09:09:05;;;;;;;22.25;18.45;;;20.90;91.30;;;;;;10148208;29;20247;-79
2022/09/30 09:14:22;;;;;;;18.55;16.40;;;20.90;91.30;;;;;;10125832;29;20247;-79
2022/09/30 09:19:35;;;;;;;21.67;17.48;;;20.90;91.30;;;;;;10138914;29;20251;-79
2022/09/30 09:24:43;;;;;;;19.92;16.25;;;20.70;92.00;;;;;;10141892;29;20239;-79
2022/09/30 09:30:01;;;;;;;21.77;17.35;;;20.70;92.20;;;;;;10126626;29;20244;-79
2022/09/30 09:35:22;;;;;;;22.50;17.60;;;20.70;92.30;;;;;;10128385;29;20243;-79
2022/09/30 09:40:41;;;;;;;21.30;16.85;;;20.70;92.30;;;;;;10135788;29;20303;-79
2022/09/30 09:46:07;;;;;;;20.37;17.27;;;20.70;92.40;;;;;;10149816;29;20253;-79
2022/09/30 09:51:31;;;;;;;21.02;16.48;;;20.90;92.10;;;;;;10133388;29;20298;-79
2022/09/30 09:56:36;;;;;;;22.60;16.08;;;20.90;91.90;;;;;;10126587;29;20272;-80
2022/09/30 10:01:50;;;;;;;20.83;16.55;;;20.90;92.00;;;;;;9789001;29;10000053;-79
2022/09/30 10:07:01;;;;;;;20.58;16.98;;;20.90;92.00;;;;;;10119505;29;20287;-80
2022/09/30 10:12:06;;;;;;;20.42;16.55;;;20.80;92.10;;;;;;10136254;29;20304;-80
2022/09/30 10:17:33;;;;;;;19.33;16.38;;;20.80;92.40;;;;;;10113227;29;20902;-81
2022/09/30 10:22:36;;;;;;;20.75;16.73;;;20.70;92.60;;;;;;10117911;29;20314;-80
2022/09/30 10:27:49;;;;;;;22.45;16.30;;;20.80;92.60;;;;;;10120633;29;20283;-80
2022/09/30 10:32:52;;;;;;;19.75;16.73;;;20.70;92.90;;;;;;10113713;29;20295;-81
2022/09/30 10:37:58;;;;;;;20.90;16.77;;;20.60;93.10;;;;;;10138589;29;20236;-80
2022/09/30 10:43:01;;;;;;;17.48;13.95;;;18.70;99.90;;;;;;10112723;29;20724;-80
2022/09/30 10:48:16;;;;;;;19.13;14.70;;;19.70;97.50;;;;;;10141589;29;20232;-80
2022/09/30 10:53:23;;;;;;;15.82;11.63;;;19.70;96.90;;;;;;10148237;29;20231;-80
2022/09/30 10:58:50;;;;;;;24.45;11.77;;;19.80;96.40;;;;;;10137853;29;20247;-81
2022/09/30 11:04:21;;;;;;;15.93;9.10;;;19.60;97.30;;;;;;10110365;29;20758;-81
2022/09/30 11:10:01;;;;;;;17.27;10.25;;;20.10;96.50;;;;;;10132555;29;20639;-81
2022/09/30 11:15:11;;;;;;;13.10;9.25;;;20.60;95.20;;;;;;10096307;29;20259;-82
2022/09/30 11:20:22;;;;;;;17.10;9.52;;;20.80;94.30;;;;;;10158885;29;20259;-81
2022/09/30 11:25:41;;;;;;;15.77;10.82;;;21.10;93.60;;;;;;10151076;29;20259;-82
2022/09/30 11:30:50;;;;;;;13.35;10.55;;;21.30;93.10;;;;;;10154991;29;20243;-81
2022/09/30 11:35:57;;;;;;;13.48;11.27;;;21.60;92.20;;;;;;10142714;29;20236;-82
2022/09/30 11:41:26;;;;;;;15.48;11.48;;;21.60;91.70;;;;;;10144009;29;20267;-82
2022/09/30 11:46:36;;;;;;;18.15;12.68;;;21.60;91.90;;;;;;10148759;29;20291;-82
2022/09/30 11:51:39;;;;;;;16.25;13.88;;;21.80;87.90;;;;;;10149897;29;20263;-81
2022/09/30 11:57:00;;;;;;;11.68;8.52;;;21.90;91.40;;;;;;10146189;29;20283;-81
2022/09/30 12:02:12;;;;;;;14.03;11.53;;;17.20;98.50;;;;;;9461430;29;10000624;-80
2022/09/30 12:07:18;;;;;;;17.53;12.07;;;16.70;99.90;;;;;;10127479;29;20237;-80
2022/09/30 12:12:21;;;;;;;18.77;12.10;;;16.60;99.90;;;;;;10146664;29;20238;-81
2022/09/30 12:17:26;;;;;;;7.93;5.97;;;;;;;;;;10138894;29;20246;-80
2022/09/30 12:22:35;;;;;;;12.77;9.87;;;16.00;99.90;;;;;;10132976;29;20314;-80
2022/09/30 12:27:44;;;;;;;16.30;12.30;;;16.90;99.90;;;;;;10133589;29;20689;-80
2022/09/30 12:33:23;;;;;;;16.50;12.83;;;15.70;99.90;;;;;;10129129;29;20279;-80
2022/09/30 12:38:53;;;;;;;18.67;13.40;;;15.10;99.90;;;;;;10128743;29;20714;-80
2022/09/30 12:44:45;;;;;;;14.70;10.73;;;15.90;99.90;;;;;;10124243;29;20787;-81
2022/09/30 12:49:48;;;;;;;13.90;11.60;;;16.40;99.90;;;;;;10115450;29;20701;-81
2022/09/30 12:55:24;;;;;;;15.33;12.43;;;15.80;99.90;;;;;;10104843;29;20341;-80
2022/09/30 13:00:30;;;;;;;18.63;13.90;;;15.70;99.90;;;;;;10123220;29;20668;-80
2022/09/30 13:05:37;;;;;;;16.77;13.23;;;16.40;99.90;;;;;;10114791;29;20238;-80
2022/09/30 13:10:44;;;;;;;20.40;14.07;;;15.80;99.90;;;;;;10137418;29;20313;-81
2022/09/30 13:15:47;;;;;;;17.47;13.37;;;15.30;99.90;;;;;;10118933;29;20303;-81
2022/09/30 13:21:04;;;;;;;18.70;14.40;;;14.60;99.90;;;;;;10143399;29;20298;-81
2022/09/30 13:26:27;;;;;;;17.40;13.27;;;14.50;99.90;;;;;;10138397;29;20263;-82
2022/09/30 13:31:54;;;;;;;24.27;14.83;;;14.40;99.90;;;;;;10136532;29;20235;-82
2022/09/30 13:37:00;;;;;;;16.83;11.93;;;14.70;99.90;;;;;;10114488;29;20254;-81
2022/09/30 13:42:25;;;;;;;16.60;10.20;;;16.00;99.90;;;;;;10132424;29;20271;-84
2022/09/30 13:47:48;;;;;;;11.90;10.10;;;17.80;99.90;;;;;;10111376;29;20240;-84
2022/09/30 13:52:58;;;;;;;11.60;9.38;;;19.50;99.90;;;;;;10094899;29;20240;-82
2022/09/30 13:58:03;;;;;;;12.07;9.27;;;20.00;99.90;;;;;;10104926;29;20248;-82
2022/09/30 14:03:25;;;;;;;12.98;10.00;;;20.40;99.90;;;;;;10093557;29;20263;-82
2022/09/30 14:08:46;;;;;;;12.50;10.55;;;20.60;99.90;;;;;;10112975;29;20315;-82
2022/09/30 14:14:00;;;;;;;12.40;10.50;;;20.80;99.90;;;;;;10112562;29;20236;-81
2022/09/30 14:19:33;;;;;;;9.85;8.88;;;20.90;99.90;;;;;;10092722;29;20232;-81
2022/09/30 14:24:40;;;;;;;10.88;9.77;;;21.00;99.90;;;;;;10108397;29;20253;-82
2022/09/30 14:30:16;;;;;;;10.52;9.50;;;21.20;99.40;;;;;;10093602;29;20231;-81
2022/09/30 14:35:27;;;;;;;10.73;9.68;;;21.20;99.00;;;;;;10126505;29;20300;-82
2022/09/30 14:40:35;;;;;;;13.30;10.73;;;21.20;98.70;;;;;;10137032;29;20315;-81
2022/09/30 14:45:41;;;;;;;10.98;9.73;;;21.20;98.60;;;;;;10136107;29;20264;-83
2022/09/30 14:50:53;;;;;;;11.32;9.15;;;21.20;98.70;;;;;;10134787;29;20224;-81
2022/09/30 14:55:56;;;;;;;11.27;7.15;;;21.10;97.00;;;;;;10134541;29;20277;-83
2022/09/30 15:01:10;;;;;;;8.73;6.47;;;20.80;93.50;;;;;;10135857;29;20292;-81
2022/09/30 15:06:42;;;;;;;10.55;6.85;;;21.00;93.30;;;;;;10118987;29;20208;-82
2022/09/30 15:11:45;;;;;;;6.18;5.60;;;20.80;93.40;;;;;;10133304;29;20256;-81
2022/09/30 15:16:56;;;;;;;6.57;5.88;;;20.90;92.90;;;;;;10118736;29;20244;-81
2022/09/30 15:22:05;;;;;;;6.63;5.70;;;20.90;92.70;;;;;;10136097;29;20303;-82
2022/09/30 15:27:19;;;;;;;7.88;5.03;;;20.90;92.90;;;;;;10115401;29;20240;-81
2022/09/30 15:32:25;;;;;;;9.50;5.53;;;20.90;93.10;;;;;;10113970;29;20268;-81
2022/09/30 15:37:32;;;;;;;8.18;5.60;;;20.90;93.30;;;;;;10096104;29;20240;-82
2022/09/30 15:42:37;;;;;;;6.38;5.60;;;20.90;93.40;;;;;;10115649;29;20383;-82
2022/09/30 15:47:57;;;;;;;7.95;6.47;;;20.90;93.60;;;;;;10134338;29;20236;-82
2022/09/30 15:53:04;;;;;;;6.45;5.82;;;20.80;93.80;;;;;;10133579;29;20613;-81
2022/09/30 15:58:28;;;;;;;6.50;5.85;;;20.80;94.10;;;;;;10125115;29;20304;-81
2022/09/30 16:03:30;;;;;;;6.40;5.80;;;20.70;94.50;;;;;;10125977;29;20263;-81
2022/09/30 16:08:45;;;;;;;6.40;5.65;;;20.60;94.90;;;;;;10115882;29;20236;-81
2022/09/30 16:13:49;;;;;;;5.50;5.00;;;20.50;95.30;;;;;;10115262;29;20240;-81
2022/09/30 16:18:53;;;;;;;7.18;5.60;;;20.40;95.70;;;;;;10096851;29;20253;-81
2022/09/30 16:23:56;;;;;;;6.78;6.07;;;20.30;96.30;;;;;;10115494;29;20289;-82
2022/09/30 16:29:03;;;;;;;6.80;6.13;;;20.20;96.60;;;;;;10100329;29;20232;-82
2022/09/30 16:34:24;;;;;;;7.13;6.00;;;20.20;96.70;;;;;;10112572;23;20812;-80
2022/09/30 16:39:27;;;;;;;14.55;8.32;;;19.60;98.10;;;;;;10166382;29;20798;-80
2022/09/30 16:44:33;;;;;;;10.13;6.13;;;19.10;98.50;;;;;;10142491;23;20328;-80
2022/09/30 16:49:41;;;;;;;10.55;6.30;;;19.20;98.40;;;;;;10091707;29;20222;-80
2022/09/30 16:54:44;;;;;;;11.20;6.47;;;19.30;98.30;;;;;;10059412;29;20233;-80
2022/09/30 16:59:46;;;;;;;7.65;5.72;;;19.30;98.20;;;;;;10053182;29;20285;-80
2022/09/30 17:04:48;;;;;;;8.88;5.85;;;19.20;98.40;;;;;;10054272;29;20261;-80
2022/09/30 17:09:51;;;;;;;9.10;6.20;;;19.20;98.40;;;;;;10038273;29;20711;-80
2022/09/30 17:14:55;;;;;;;10.10;6.25;;;19.20;98.50;;;;;;10052106;29;20245;-80
2022/09/30 17:19:57;;;;;;;9.40;6.28;;;19.20;98.60;;;;;;10054298;29;20237;-80
2022/09/30 17:25:01;;;;;;;8.70;6.37;;;19.20;98.80;;;;;;10053185;29;20226;-80
2022/09/30 17:30:05;;;;;;;9.93;7.13;;;19.10;99.00;;;;;;10053324;29;20646;-80
2022/09/30 17:35:08;;;;;;;8.35;6.22;;;19.10;99.00;;;;;;10054175;29;20229;-80
2022/09/30 17:45:32;;;;;;;9.95;6.82;;;19.10;99.00;;;;;;10130170;29;20228;-80
2022/09/30 17:50:45;;;;;;;9.90;6.77;;;19.10;99.00;;;;;;10128895;29;20719;-80
2022/09/30 17:56:09;;;;;;;14.40;7.55;;;19.00;99.20;;;;;;10108221;29;20213;-80
2022/09/30 18:01:12;;;;;;;7.90;6.85;;;19.00;99.40;;;;;;10078731;29;20257;-80
2022/09/30 18:06:15;;;;;;;9.95;6.75;;;18.90;99.50;;;;;;10090972;29;20261;-80
2022/09/30 18:11:25;;;;;;;10.82;6.60;;;19.00;99.30;;;;;;10105231;29;20257;-80
2022/09/30 18:16:30;;;;;;;11.23;6.85;;;19.10;99.20;;;;;;10089690;29;20602;-80
2022/09/30 18:21:34;;;;;;;9.15;6.63;;;19.00;99.10;;;;;;10118909;29;20310;-80
2022/09/30 18:26:37;;;;;;;9.27;7.55;;;19.00;99.20;;;;;;10129503;29;20299;-80
2022/09/30 18:31:39;;;;;;;10.63;7.65;;;19.00;99.30;;;;;;10127637;29;20311;-80
2022/09/30 18:36:43;;;;;;;10.00;7.57;;;19.00;99.30;;;;;;10115207;29;20631;-80
2022/09/30 18:41:47;;;;;;;12.02;7.72;;;19.00;99.30;;;;;;10087585;29;20273;-80
2022/09/30 18:46:50;;;;;;;11.43;7.38;;;18.90;99.40;;;;;;10107620;29;20244;-82
2022/09/30 18:51:52;;;;;;;11.80;7.93;;;18.90;99.30;;;;;;10127589;29;20719;-81
2022/09/30 18:56:55;;;;;;;13.00;8.13;;;19.00;99.30;;;;;;10128932;29;20260;-80
2022/09/30 19:01:59;;;;;;;13.90;7.70;;;18.90;99.30;;;;;;10128838;29;20260;-80
2022/09/30 19:07:01;;;;;;;38.97;19.67;;;18.90;99.40;;;;;;10103631;29;20269;-80
2022/09/30 19:12:04;;;;;;;65.13;19.70;;;18.30;97.30;;;;;;10085719;24;20265;-87
2022/09/30 19:17:06;;;;;;;61.50;19.13;;;17.90;99.90;;;;;;10074850;29;20273;-88
2022/09/30 19:22:09;;;;;;;50.65;19.13;;;19.10;99.90;;;;;;10134971;29;20259;-88
2022/09/30 19:27:12;;;;;;;45.33;17.10;;;19.70;98.90;;;;;;10101297;29;20284;-88
2022/09/30 19:32:17;;;;;;;37.85;18.83;;;;;;;;;;10119883;29;20680;-88
2022/09/30 19:37:20;;;;;;;47.10;20.02;;;20.30;96.80;;;;;;10117711;29;20292;-89
2022/09/30 19:42:28;;;;;;;35.33;20.92;;;20.60;96.20;;;;;;9767695;29;10000083;-89
2022/09/30 19:47:31;;;;;;;37.63;22.58;;;20.80;95.60;;;;;;10117300;29;20571;-89
2022/09/30 19:52:35;;;;;;;48.67;22.73;;;20.90;95.20;;;;;;10087075;29;20272;-88
2022/09/30 19:57:49;;;;;;;43.67;24.20;;;21.00;94.70;;;;;;10092687;29;20240;-88
2022/09/30 20:02:51;;;;;;;35.83;21.10;;;21.20;94.20;;;;;;10091914;29;20705;-88
2022/09/30 20:07:54;;;;;;;39.15;23.60;;;21.20;94.20;;;;;;10102419;29;20292;-89
2022/09/30 20:12:56;;;;;;;39.67;24.42;;;21.20;93.90;;;;;;10127753;29;20308;-89
2022/09/30 20:17:58;;;;;;;36.25;22.77;;;21.30;93.60;;;;;;10114562;29;20311;-89
2022/09/30 20:23:02;;;;;;;38.22;23.08;;;21.20;93.90;;;;;;10130709;29;20655;-89
2022/09/30 20:28:05;;;;;;;38.05;22.98;;;21.20;93.60;;;;;;10073970;29;20313;-89
2022/09/30 20:33:07;;;;;;;33.85;22.73;;;21.30;93.60;;;;;;10080416;29;20244;-89
2022/09/30 20:38:14;;;;;;;37.38;23.63;;;21.30;93.60;;;;;;10113101;29;20252;-89
2022/09/30 20:43:26;;;;;;;31.17;22.38;;;21.30;93.60;;;;;;10146565;29;20609;-89
2022/09/30 20:48:37;;;;;;;33.65;23.73;;;21.30;93.70;;;;;;10109882;29;20236;-89
2022/09/30 20:53:39;;;;;;;36.88;24.10;;;21.20;93.70;;;;;;10090977;29;20236;-88
2022/09/30 20:58:45;;;;;;;39.53;22.92;;;21.20;93.70;;;;;;10073636;29;20265;-89
2022/09/30 21:03:50;;;;;;;36.25;22.10;;;21.20;93.80;;;;;;10105477;29;20737;-89
2022/09/30 21:08:53;;;;;;;34.95;22.85;;;21.10;93.90;;;;;;10090415;29;20301;-89
2022/09/30 21:13:56;;;;;;;31.55;23.25;;;21.10;94.00;;;;;;10100696;29;20690;-89
2022/09/30 21:18:59;;;;;;;31.98;21.83;;;21.10;93.90;;;;;;10129991;29;20232;-88
2022/09/30 21:24:01;;;;;;;32.67;23.00;;;21.10;94.10;;;;;;10094123;29;20762;-89
2022/09/30 21:29:04;;;;;;;35.50;23.73;;;21.10;94.10;;;;;;10103537;29;20244;-89
2022/09/30 21:34:12;;;;;;;32.08;22.85;;;21.00;94.00;;;;;;10122007;29;20263;-88
2022/09/30 21:39:15;;;;;;;30.90;22.17;;;21.00;94.20;;;;;;10138049;29;20698;-89
2022/09/30 21:44:17;;;;;;;36.95;21.88;;;21.00;94.30;;;;;;10086999;29;20264;-89
2022/09/30 21:49:25;;;;;;;32.42;23.38;;;21.00;94.40;;;;;;10127920;29;20240;-89
2022/09/30 21:54:27;;;;;;;28.20;22.48;;;20.90;94.40;;;;;;10110298;29;20284;-88
2022/09/30 21:59:30;;;;;;;31.42;22.85;;;20.90;94.40;;;;;;10125025;29;20248;-89
2022/09/30 22:04:32;;;;;;;31.30;22.50;;;20.90;94.30;;;;;;10102914;29;20288;-89
2022/09/30 22:09:35;;;;;;;32.75;23.40;;;20.90;94.30;;;;;;10092141;29;20957;-89
2022/09/30 22:14:44;;;;;;;30.05;22.50;;;20.90;94.30;;;;;;10076075;29;20278;-90
2022/09/30 22:19:46;;;;;;;30.20;21.92;;;20.40;95.80;;;;;;10109125;29;20236;-89
2022/09/30 22:24:49;;;;;;;28.23;21.70;;;20.70;95.10;;;;;;10112924;29;20286;-89
2022/09/30 22:29:51;;;;;;;30.63;23.52;;;20.80;94.90;;;;;;10144307;29;20282;-88
2022/09/30 22:40:15;;;;;;;31.23;22.85;;;20.80;94.80;;;;;;10125231;29;20287;-89
2022/09/30 22:45:17;;;;;;;28.08;22.15;;;20.80;94.70;;;;;;10148761;29;20330;-90
2022/09/30 22:50:20;;;;;;;28.80;22.27;;;20.70;94.90;;;;;;10090120;29;20237;-89
2022/09/30 22:55:22;;;;;;;28.95;22.02;;;20.70;94.90;;;;;;10097771;29;20240;-89
2022/09/30 23:00:25;;;;;;;33.00;23.33;;;20.70;95.00;;;;;;10080865;29;20315;-89
2022/09/30 23:05:27;;;;;;;30.25;22.65;;;20.70;95.20;;;;;;10084240;29;20252;-89
2022/09/30 23:10:30;;;;;;;30.02;23.10;;;20.60;95.00;;;;;;10146212;29;20260;-88
2022/09/30 23:15:32;;;;;;;27.45;22.15;;;20.50;95.10;;;;;;10174876;29;20211;-88
2022/09/30 23:20:35;;;;;;;30.17;23.17;;;20.50;95.20;;;;;;10155988;29;20263;-88
2022/09/30 23:25:38;;;;;;;28.92;21.85;;;20.50;95.10;;;;;;10156866;29;20263;-89
2022/09/30 23:30:40;;;;;;;27.90;22.58;;;20.50;95.10;;;;;;10173646;29;20663;-88
2022/09/30 23:35:49;;;;;;;28.33;21.92;;;20.50;95.10;;;;;;10157235;29;20271;-89
2022/09/30 23:40:54;;;;;;;29.23;22.33;;;20.50;95.10;;;;;;10130121;29;20280;-88
2022/09/30 23:45:57;;;;;;;28.33;21.33;;;20.40;95.30;;;;;;10135420;29;20261;-88
2022/09/30 23:51:03;;;;;;;27.00;21.48;;;20.40;95.30;;;;;;10152240;29;20291;-88
2022/09/30 23:56:11;;;;;;;28.20;21.77;;;20.40;95.20;;;;;;10154521;29;20307;-88
